Time;durP1;ratioP1;P1;durP2;ratioP2;P2;SDS_P1;SDS_P2;PMS_P1;PMS_P2;Temp;Humidity;BMP_temperature;BMP_pressure;BME280_temperature;BME280_humidity;BME280_pressure;Samples;Min_cycle;Max_cycle;Signal;HPM_P1;HPM_P2
2020/12/18 00:01:49;;;;;;;89.80;44.65;;;;;;;2.73;98.00;101064.50;1683763;85;21225;-68
2020/12/18 00:04:17;;;;;;;114.70;55.35;;;;;;;2.74;98.16;101048.03;1668030;85;21674;-71
2020/12/18 00:06:50;;;;;;;136.65;64.85;;;;;;;2.76;98.22;101048.71;1672036;85;21151;-72
2020/12/18 00:09:19;;;;;;;94.58;47.38;;;;;;;2.77;98.24;101049.05;1638144;86;21323;-70
2020/12/18 00:11:47;;;;;;;105.30;53.98;;;;;;;2.78;98.21;101046.73;1653689;86;21203;-71
2020/12/18 00:14:14;;;;;;;114.17;53.25;;;;;;;2.80;98.27;101043.39;1633846;86;21230;-71
2020/12/18 00:16:42;;;;;;;123.70;57.53;;;;;;;2.85;98.45;101057.84;1644913;87;21617;-70
2020/12/18 00:19:09;;;;;;;106.75;52.93;;;;;;;2.89;98.50;101057.01;1628361;88;21641;-69
2020/12/18 00:21:37;;;;;;;103.97;52.98;;;;;;;2.93;98.61;101054.34;1644276;87;21232;-70
2020/12/18 00:24:05;;;;;;;98.33;43.33;;;;;;;2.96;98.52;101044.73;1679268;84;21671;-70
2020/12/18 00:26:35;;;;;;;112.80;53.90;;;;;;;2.96;98.31;101049.55;1656407;86;21630;-73
2020/12/18 00:29:03;;;;;;;96.12;47.10;;;;;;;2.97;98.29;101041.88;1702129;83;21079;-72
2020/12/18 00:31:31;;;;;;;95.05;46.88;;;;;;;2.98;98.18;101043.55;1684156;85;21145;-70
2020/12/18 00:33:58;;;;;;;85.35;40.45;;;;;;;3.01;98.27;101048.55;1684146;83;21170;-70
2020/12/18 00:36:26;;;;;;;90.90;41.92;;;;;;;3.07;98.26;101045.69;1684115;85;21588;-71
2020/12/18 00:38:53;;;;;;;82.33;42.48;;;;;;;3.03;97.89;101047.86;1683935;85;21386;-69
2020/12/18 00:41:21;;;;;;;90.00;46.63;;;;;;;2.96;97.51;101040.73;1679069;84;21165;-70
2020/12/18 00:43:49;;;;;;;82.12;41.73;;;;;;;2.87;97.30;101039.92;1680591;83;21170;-71
2020/12/18 00:46:16;;;;;;;75.62;38.13;;;;;;;2.78;97.33;101042.75;1713172;83;21071;-69
2020/12/18 00:48:44;;;;;;;79.47;41.28;;;;;;;2.72;97.42;101039.42;1713173;83;21658;-72
2020/12/18 00:51:19;;;;;;;79.37;38.50;;;;;;;2.68;97.51;101040.26;1695438;83;21210;-67
2020/12/18 00:53:48;;;;;;;76.20;41.42;;;;;;;2.68;97.63;101037.59;1674632;85;21118;-70
2020/12/18 00:56:16;;;;;;;72.12;36.53;;;;;;;2.66;97.50;101037.41;1694912;84;21182;-70
2020/12/18 00:58:44;;;;;;;72.53;37.65;;;;;;;2.63;97.48;101033.28;1687709;83;21144;-68
2020/12/18 01:01:14;;;;;;;79.12;38.67;;;;;;;2.63;97.58;101036.77;1699893;84;21206;-66
2020/12/18 01:03:41;;;;;;;77.20;39.48;;;;;;;2.66;97.65;101029.45;1678438;84;22378;-67
2020/12/18 01:06:11;;;;;;;78.33;40.92;;;;;;;2.64;97.62;101024.30;1687370;84;21061;-69
2020/12/18 01:08:41;;;;;;;77.08;36.90;;;;;;;2.63;97.58;101028.80;1677258;83;21192;-68
2020/12/18 01:11:09;;;;;;;77.90;37.15;;;;;;;2.65;97.57;101023.30;1693995;83;21175;-68
2020/12/18 01:13:37;;;;;;;60.80;30.43;;;;;;;2.66;97.51;101023.64;1653466;86;21229;-70
2020/12/18 01:16:11;;;;;;;79.10;35.88;;;;;;;2.67;97.51;101021.33;1674135;85;21585;-69
2020/12/18 01:18:40;;;;;;;95.55;44.42;;;;;;;2.64;97.31;101018.98;1690896;83;21165;-69
2020/12/18 01:21:10;;;;;;;80.28;40.45;;;;;;;2.67;97.50;101016.02;1717446;83;21214;-70
2020/12/18 01:23:41;;;;;;;63.70;33.15;;;;;;;2.70;97.40;101014.34;1717727;83;21166;-70
2020/12/18 01:26:10;;;;;;;63.75;32.98;;;;;;;2.74;97.31;101016.16;1717756;83;21218;-70
2020/12/18 01:28:38;;;;;;;65.20;35.68;;;;;;;2.72;97.09;101012.36;1718438;82;21290;-70
2020/12/18 01:31:06;;;;;;;63.42;31.82;;;;;;;2.69;96.88;101014.50;1717623;83;21000;-70
2020/12/18 01:33:35;;;;;;;62.08;33.33;;;;;;;2.67;96.85;101009.87;1717803;83;21143;-68
2020/12/18 01:36:05;;;;;;;68.00;31.70;;;;;;;2.60;96.72;101010.52;1717089;83;21197;-67
2020/12/18 01:38:35;;;;;;;59.55;32.63;;;;;;;2.56;96.71;101008.36;1679095;85;21166;-67
2020/12/18 01:41:03;;;;;;;66.05;34.35;;;;;;;2.56;96.75;101016.33;1707324;84;22068;-70
2020/12/18 01:43:31;;;;;;;59.08;32.98;;;;;;;2.56;96.80;101015.00;1691483;84;21037;-69
2020/12/18 01:45:59;;;;;;;66.65;35.08;;;;;;;2.56;96.79;101012.34;1693560;84;21607;-70
2020/12/18 01:48:27;;;;;;;59.10;31.35;;;;;;;2.57;96.77;101010.03;1674667;85;21202;-69
2020/12/18 01:50:56;;;;;;;53.17;25.57;;;;;;;2.59;96.74;101010.19;1649530;85;21217;-72
2020/12/18 01:53:26;;;;;;;55.10;27.58;;;;;;;2.55;96.59;101004.88;1671288;85;22147;-66
2020/12/18 01:56:19;;;;;;;52.77;28.53;;;;;;;2.60;96.48;101006.54;1846854;76;22742;-68
2020/12/18 01:58:48;;;;;;;62.90;33.40;;;;;;;2.56;96.36;101013.67;1812081;79;20991;-72
2020/12/18 02:01:18;;;;;;;52.70;29.18;;;;;;;2.53;96.29;101008.21;1815489;79;21359;-69
2020/12/18 02:03:48;;;;;;;53.30;30.32;;;;;;;2.55;96.36;101008.02;1814086;79;20991;-70
2020/12/18 02:06:21;;;;;;;44.10;25.15;;;;;;;2.59;96.42;100998.23;1816048;79;20932;-69
2020/12/18 02:09:05;;;;;;;62.98;37.93;;;;;;;2.72;96.32;100997.75;1814551;76;27899;-69
2020/12/18 02:11:40;;;;;;;59.20;32.85;;;;;;;2.70;95.83;101008.20;1784478;80;21071;-69
2020/12/18 02:14:17;;;;;;;53.93;31.83;;;;;;;2.73;95.51;101007.88;1884667;76;22850;-73
2020/12/18 02:16:49;;;;;;;44.10;26.25;;;;;;;2.70;95.46;101008.20;1777992;78;20986;-71
2020/12/18 02:19:32;;;;;;;61.37;33.60;;;;;;;2.73;95.38;100999.42;1847283;76;22711;-70
2020/12/18 02:22:15;;;;;;;63.23;36.90;;;;;;;2.64;95.16;101002.55;1816430;79;20935;-75
2020/12/18 02:24:49;;;;;;;62.62;36.53;;;;;;;2.62;95.26;101003.73;1796568;79;21375;-70
2020/12/18 02:27:19;;;;;;;51.70;30.70;;;;;;;2.67;95.32;100998.75;1791591;79;21010;-69
2020/12/18 02:29:51;;;;;;;58.05;33.15;;;;;;;2.71;95.24;100998.74;1784792;80;21038;-69
2020/12/18 02:32:19;;;;;;;55.60;31.12;;;;;;;2.72;95.08;101002.23;1811171;79;21063;-68
2020/12/18 02:34:49;;;;;;;59.38;33.67;;;;;;;2.74;95.06;101005.03;1816176;79;20940;-69
2020/12/18 02:37:18;;;;;;;55.52;31.45;;;;;;;2.73;94.80;100996.77;1806345;79;21399;-68
2020/12/18 02:39:46;;;;;;;50.75;29.25;;;;;;;2.74;94.79;100997.56;1754941;80;21066;-67
2020/12/18 02:42:17;;;;;;;58.63;32.13;;;;;;;2.71;94.46;101001.40;1753296;81;21030;-70
2020/12/18 02:44:47;;;;;;;48.78;26.62;;;;;;;2.67;94.31;100993.44;1775387;80;21062;-69
2020/12/18 02:47:19;;;;;;;41.70;23.77;;;;;;;2.65;94.36;100990.10;1765679;80;21117;-69
2020/12/18 02:49:46;;;;;;;48.38;28.00;;;;;;;2.62;94.26;100989.12;1754028;81;21364;-69
2020/12/18 02:52:16;;;;;;;53.80;31.55;;;;;;;2.55;94.11;100998.23;1724472;81;21034;-70
2020/12/18 02:54:52;;;;;;;59.08;35.30;;;;;;;2.47;94.16;100992.10;1750647;80;21022;-70
2020/12/18 02:57:45;;;;;;;54.27;30.63;;;;;;;2.45;94.34;100987.44;1846422;76;22650;-69
2020/12/18 03:00:14;;;;;;;52.85;29.20;;;;;;;2.37;94.44;100992.26;1812372;79;20960;-70
2020/12/18 03:02:45;;;;;;;49.80;26.00;;;;;;;2.35;94.61;100996.89;1748605;82;21199;-71
2020/12/18 03:05:13;;;;;;;58.00;31.75;;;;;;;2.39;94.96;100998.74;1761472;81;21045;-80
2020/12/18 03:07:48;;;;;;;57.17;35.50;;;;;;;2.43;94.95;100997.41;1739938;81;21058;-69
2020/12/18 03:10:17;;;;;;;59.53;32.55;;;;;;;2.47;94.96;100994.27;1750485;82;21025;-69
2020/12/18 03:12:45;;;;;;;58.48;35.30;;;;;;;2.51;94.83;100994.75;1750570;82;20998;-70
2020/12/18 03:15:13;;;;;;;48.48;27.20;;;;;;;2.51;94.73;100996.08;1745261;81;22379;-70
2020/12/18 03:17:58;;;;;;;48.13;29.30;;;;;;;2.49;94.58;100996.77;1761286;81;20990;-69
2020/12/18 03:20:27;;;;;;;56.88;31.48;;;;;;;2.48;94.67;100999.08;1817281;79;21555;-72
2020/12/18 03:23:19;;;;;;;52.73;29.70;;;;;;;2.49;94.65;100994.11;1844861;76;22752;-69
2020/12/18 03:25:48;;;;;;;53.58;28.77;;;;;;;2.38;94.59;100993.92;1790258;79;20956;-69
2020/12/18 03:28:26;;;;;;;50.60;27.97;;;;;;;2.33;94.75;100995.41;1846273;75;22667;-69
2020/12/18 03:30:55;;;;;;;51.08;28.42;;;;;;;2.25;94.93;100998.90;1817372;79;20955;-68
2020/12/18 03:33:23;;;;;;;56.80;33.18;;;;;;;2.28;95.19;100995.07;1817190;78;21346;-69
2020/12/18 03:35:53;;;;;;;52.70;30.05;;;;;;;2.29;95.23;100999.39;1815937;79;21610;-69
2020/12/18 03:38:20;;;;;;;39.55;21.33;;;;;;;2.33;95.43;100999.39;1795863;78;20994;-70
2020/12/18 03:40:48;;;;;;;45.28;25.80;;;;;;;2.39;95.44;100989.45;1785012;80;21040;-70
2020/12/18 03:43:18;;;;;;;50.83;27.93;;;;;;;2.39;95.21;100995.59;1784211;80;21269;-69
2020/12/18 03:45:46;;;;;;;48.63;25.85;;;;;;;2.32;95.02;101007.84;1753797;80;23594;-68
2020/12/18 03:48:33;;;;;;;40.40;24.57;;;;;;;2.25;95.04;101004.20;1723887;82;21030;-70
2020/12/18 03:51:11;;;;;;;43.25;25.20;;;;;;;2.25;95.26;101005.53;1701545;84;21012;-70
2020/12/18 03:53:40;;;;;;;56.75;31.42;;;;;;;2.19;95.26;101002.20;1753920;81;21078;-69
2020/12/18 03:56:12;;;;;;;40.10;23.77;;;;;;;2.20;95.37;101010.50;1738196;80;21136;-69
2020/12/18 03:58:53;;;;;;;50.70;29.67;;;;;;;2.25;95.52;101008.69;1889237;76;22566;-70
2020/12/18 04:01:37;;;;;;;46.28;27.70;;;;;;;2.14;95.53;101010.65;1744677;81;21214;-69
2020/12/18 04:04:13;;;;;;;50.05;30.45;;;;;;;2.20;95.75;101009.17;1873048;76;27373;-68
2020/12/18 04:06:41;;;;;;;40.83;21.95;;;;;;;2.24;95.68;101007.02;1843908;77;21543;-70
2020/12/18 04:09:10;;;;;;;41.15;23.73;;;;;;;2.34;95.74;101001.89;1848481;77;21598;-69
2020/12/18 04:11:41;;;;;;;36.25;20.88;;;;;;;2.41;95.63;100999.39;1849919;77;21027;-69
2020/12/18 04:14:20;;;;;;;27.30;17.27;;;;;;;2.48;95.51;100993.27;1849119;77;21051;-70
2020/12/18 04:16:49;;;;;;;44.30;26.23;;;;;;;2.48;95.17;100991.11;1763172;80;21370;-70
2020/12/18 04:19:17;;;;;;;30.50;18.80;;;;;;;2.47;94.98;100996.91;1820941;78;20936;-70
2020/12/18 04:21:46;;;;;;;45.05;24.20;;;;;;;2.48;94.77;100991.11;1751284;82;21169;-69
2020/12/18 04:24:19;;;;;;;29.30;19.92;;;;;;;2.47;94.71;100994.27;1749873;82;21030;-69
2020/12/18 04:26:48;;;;;;;32.88;19.35;;;;;;;2.45;94.43;100992.25;1823051;78;20990;-69
2020/12/18 04:29:17;;;;;;;32.53;19.27;;;;;;;2.39;94.29;101000.91;1804464;78;21225;-68
2020/12/18 04:31:46;;;;;;;40.12;21.93;;;;;;;2.33;94.24;101000.72;1820788;78;21149;-69
2020/12/18 04:34:14;;;;;;;31.17;20.12;;;;;;;2.28;94.36;100997.23;1774603;78;23545;-69
2020/12/18 04:36:50;;;;;;;33.48;20.32;;;;;;;2.29;94.42;100997.57;1828066;77;21200;-70
2020/12/18 04:39:20;;;;;;;32.55;18.67;;;;;;;2.32;94.49;100998.56;1859120;77;21062;-70
2020/12/18 04:41:48;;;;;;;30.80;18.07;;;;;;;2.36;94.42;100995.91;1789383;80;21131;-66
2020/12/18 04:44:16;;;;;;;29.65;17.25;;;;;;;2.35;94.14;100994.23;1775396;80;21177;-68
2020/12/18 04:46:51;;;;;;;30.23;18.92;;;;;;;2.37;94.14;101003.37;1794758;78;21198;-71
2020/12/18 04:49:20;;;;;;;30.80;19.02;;;;;;;2.34;93.85;101004.55;1725788;81;21185;-68
2020/12/18 04:51:49;;;;;;;25.68;16.40;;;;;;;2.31;93.68;101005.34;1771085;81;21183;-69
2020/12/18 04:54:21;;;;;;;23.90;15.35;;;;;;;2.32;93.70;101009.67;1718397;81;21085;-68
2020/12/18 04:56:51;;;;;;;28.17;18.77;;;;;;;2.35;93.85;101003.53;1723578;81;21120;-68
2020/12/18 04:59:23;;;;;;;21.90;14.13;;;;;;;2.32;93.59;101003.87;1720318;82;21209;-68
2020/12/18 05:01:56;;;;;;;26.10;17.55;;;;;;;2.35;93.56;101004.05;1741689;82;21217;-67
2020/12/18 05:04:28;;;;;;;26.07;17.45;;;;;;;2.32;93.38;101006.52;1712882;83;21228;-70
2020/12/18 05:07:09;;;;;;;24.43;15.23;;;;;;;2.28;93.05;101009.67;1842944;75;22667;-69
2020/12/18 05:09:43;;;;;;;21.70;15.93;;;;;;;2.10;93.24;101008.48;1806230;79;21625;-69
2020/12/18 05:12:11;;;;;;;32.38;18.87;;;;;;;2.10;93.24;101008.48;1751772;81;21452;-68
2020/12/18 05:14:40;;;;;;;23.80;16.30;;;;;;;2.07;93.30;101012.77;1768096;81;21018;-69
2020/12/18 05:17:10;;;;;;;26.77;17.30;;;;;;;2.11;93.52;101016.79;1795456;79;20987;-69
2020/12/18 05:19:43;;;;;;;24.67;17.42;;;;;;;2.11;93.39;101017.59;1779929;80;21686;-69
2020/12/18 05:22:29;;;;;;;22.07;13.35;;;;;;;2.11;93.37;101016.27;1740421;82;20982;-70
2020/12/18 05:24:59;;;;;;;24.92;16.00;;;;;;;2.16;93.45;101017.10;1739516;82;21236;-69
2020/12/18 05:27:27;;;;;;;28.62;17.67;;;;;;;2.15;93.25;101014.97;1740323;82;21002;-70
2020/12/18 05:29:58;;;;;;;21.20;15.60;;;;;;;2.13;93.14;101018.77;1741118;81;21605;-69
2020/12/18 05:32:41;;;;;;;26.80;16.43;;;;;;;2.21;93.27;101016.12;1848190;75;23301;-72
2020/12/18 05:35:11;;;;;;;32.00;19.05;;;;;;;2.16;93.21;101017.94;1818291;79;21019;-71
2020/12/18 05:37:40;;;;;;;23.87;16.52;;;;;;;2.17;93.11;101026.23;1791978;79;21330;-70
2020/12/18 05:40:22;;;;;;;23.12;13.40;;;;;;;2.17;92.92;101021.42;1775493;80;21009;-69
2020/12/18 05:43:08;;;;;;;22.17;14.28;;;;;;;2.14;92.81;101023.09;1738508;81;21025;-69
2020/12/18 05:45:37;;;;;;;20.68;15.05;;;;;;;2.02;92.68;101025.20;1763095;81;21636;-71
2020/12/18 05:48:17;;;;;;;24.33;15.50;;;;;;;1.97;92.83;101027.50;1847124;75;23309;-71
2020/12/18 05:50:49;;;;;;;28.83;15.60;;;;;;;1.88;93.02;101028.97;1815544;79;21007;-68
2020/12/18 05:53:17;;;;;;;24.67;15.48;;;;;;;1.90;93.28;101027.00;1816923;79;21191;-69
2020/12/18 05:55:50;;;;;;;19.95;12.93;;;;;;;1.91;93.34;101032.16;1816402;79;21046;-71
2020/12/18 05:58:24;;;;;;;22.13;15.18;;;;;;;1.91;93.43;101032.16;1816100;79;21586;-70
2020/12/18 06:00:53;;;;;;;32.50;18.73;;;;;;;1.87;93.48;101033.97;1784990;79;20983;-71
2020/12/18 06:03:39;;;;;;;30.65;19.48;;;;;;;1.83;93.57;101030.77;1817222;79;20928;-69
2020/12/18 06:06:11;;;;;;;20.02;13.83;;;;;;;1.88;93.83;101029.80;1817192;79;21423;-68
2020/12/18 06:08:41;;;;;;;22.17;15.32;;;;;;;1.98;93.99;101033.64;1817049;79;21008;-70
2020/12/18 06:11:12;;;;;;;20.27;15.35;;;;;;;1.94;93.62;101033.14;1793530;78;21567;-70
2020/12/18 06:13:44;;;;;;;26.30;15.58;;;;;;;1.89;93.60;101034.61;1783755;80;21527;-69
2020/12/18 06:16:26;;;;;;;27.65;17.40;;;;;;;1.84;93.68;101032.94;1785380;79;21161;-69
2020/12/18 06:19:04;;;;;;;23.80;16.17;;;;;;;1.80;93.75;101032.92;1784376;80;21486;-67
2020/12/18 06:21:40;;;;;;;32.17;19.10;;;;;;;1.79;93.95;101034.75;1737446;81;21085;-67
2020/12/18 06:24:10;;;;;;;24.50;15.13;;;;;;;1.80;94.10;101035.09;1811038;79;21557;-70
2020/12/18 06:26:55;;;;;;;31.77;19.48;;;;;;;1.83;94.31;101032.10;1817262;79;21142;-69
2020/12/18 06:29:36;;;;;;;29.27;16.23;;;;;;;1.87;94.27;101039.27;1846979;76;22573;-69
2020/12/18 06:32:25;;;;;;;25.48;17.92;;;;;;;1.78;94.28;101037.05;1816475;78;21003;-70
2020/12/18 06:35:38;;;;;;;31.03;21.30;;;;;;;1.82;94.41;101050.85;1833923;76;38113;-68
2020/12/18 06:38:25;;;;;;;29.07;19.27;;;;;;;1.79;94.35;101063.09;1787407;80;20930;-70
2020/12/18 06:41:23;;;;;;;24.70;16.00;;;;;;;1.82;94.42;101063.63;1787518;80;21380;-69
2020/12/18 06:44:38;;;;;;;30.72;17.87;;;;;;;1.83;94.54;101057.80;1786720;80;21554;-69
2020/12/18 06:47:31;;;;;;;26.83;17.17;;;;;;;1.84;94.50;101051.50;1847089;76;22622;-70
2020/12/18 06:50:10;;;;;;;38.78;19.87;;;;;;;1.80;94.65;101051.49;1817174;79;21046;-69
2020/12/18 06:52:59;;;;;;;28.80;19.23;;;;;;;1.78;94.72;101056.11;1800240;79;21349;-69
2020/12/18 06:55:37;;;;;;;28.60;20.10;;;;;;;1.79;94.77;101049.33;1867550;76;22621;-71
2020/12/18 06:58:28;;;;;;;28.27;16.90;;;;;;;1.70;94.93;101054.27;1821117;78;20950;-70
2020/12/18 07:00:59;;;;;;;31.05;20.65;;;;;;;1.69;95.12;101057.41;1820992;78;21262;-69
2020/12/18 07:03:43;;;;;;;30.52;19.07;;;;;;;1.70;95.20;101054.27;1829548;77;20995;-69
2020/12/18 07:06:23;;;;;;;36.80;22.15;;;;;;;1.71;95.38;101055.94;1850722;77;21169;-68
2020/12/18 07:08:51;;;;;;;39.92;22.73;;;;;;;1.70;95.37;101058.25;1849156;77;20960;-68
2020/12/18 07:11:19;;;;;;;34.00;20.00;;;;;;;1.67;95.50;101052.78;1848978;77;20999;-70
2020/12/18 07:13:51;;;;;;;33.02;21.07;;;;;;;1.67;95.53;101054.11;1820161;77;21189;-67
2020/12/18 07:16:26;;;;;;;28.15;18.57;;;;;;;1.70;95.53;101053.78;1792374;80;21547;-69
2020/12/18 07:18:51;;;;;;;39.55;24.70;;;;;;;1.76;95.55;101052.31;1792483;79;20955;-69
2020/12/18 07:21:19;;;;;;;33.98;20.92;;;;;;;1.72;95.39;101057.12;1792076;80;21152;-70
2020/12/18 07:23:49;;;;;;;34.63;20.68;;;;;;;1.71;95.37;101056.77;1793677;77;21263;-69
2020/12/18 07:26:18;;;;;;;39.05;21.68;;;;;;;1.73;95.37;101056.59;1792203;80;21205;-69
2020/12/18 07:28:46;;;;;;;39.35;25.70;;;;;;;1.71;95.41;101053.28;1805842;77;21145;-70
2020/12/18 07:31:22;;;;;;;36.40;23.85;;;;;;;1.71;95.52;101054.61;1792328;79;21643;-69
2020/12/18 07:33:55;;;;;;;39.38;24.30;;;;;;;1.70;95.54;101057.76;1845708;77;21150;-68
2020/12/18 07:36:26;;;;;;;36.70;23.67;;;;;;;1.74;95.58;101060.42;1857837;77;21132;-69
2020/12/18 07:38:58;;;;;;;37.48;21.90;;;;;;;1.71;95.49;101055.94;1862936;77;21176;-70
2020/12/18 07:41:31;;;;;;;32.65;20.60;;;;;;;1.68;95.49;101053.09;1862855;77;21112;-72
2020/12/18 07:44:06;;;;;;;34.10;22.13;;;;;;;1.68;95.66;101054.42;1830538;77;21011;-68
2020/12/18 07:46:34;;;;;;;39.60;24.72;;;;;;;1.73;95.74;101051.28;1829126;78;21567;-69
2020/12/18 07:49:10;;;;;;;37.73;22.87;;;;;;;1.77;95.82;101054.48;1830721;78;21614;-69
2020/12/18 07:51:38;;;;;;;35.20;21.15;;;;;;;1.75;95.66;101059.93;1829774;77;21201;-70
2020/12/18 07:54:05;;;;;;;40.05;24.90;;;;;;;1.74;95.59;101071.03;1829017;77;21146;-71
2020/12/18 07:56:33;;;;;;;34.73;21.40;;;;;;;1.77;95.66;101071.22;1822876;78;21130;-69
2020/12/18 07:59:07;;;;;;;26.85;18.42;;;;;;;1.84;95.80;101064.27;1831364;77;20963;-72
2020/12/18 08:01:36;;;;;;;34.65;22.25;;;;;;;1.91;95.91;101070.62;1809880;78;21145;-73
2020/12/18 08:04:08;;;;;;;27.07;19.80;;;;;;;1.88;95.28;101068.76;1823990;77;21587;-70
2020/12/18 08:06:37;;;;;;;30.23;20.00;;;;;;;1.83;95.22;101057.30;1795772;78;21129;-72
2020/12/18 08:09:10;;;;;;;34.43;22.73;;;;;;;1.79;95.12;101059.94;1826541;78;21003;-70
2020/12/18 08:11:42;;;;;;;34.67;22.15;;;;;;;1.80;95.11;101058.95;1818713;77;21146;-68
2020/12/18 08:14:09;;;;;;;28.15;17.37;;;;;;;1.79;94.93;101063.09;1845277;77;21709;-70
2020/12/18 08:16:37;;;;;;;32.03;19.02;;;;;;;1.83;94.83;101059.95;1828040;78;21311;-70
2020/12/18 08:19:07;;;;;;;28.83;18.92;;;;;;;1.78;94.57;101064.91;1850183;77;20989;-74
2020/12/18 08:21:44;;;;;;;29.12;19.77;;;;;;;1.80;94.56;101067.41;1822922;78;21558;-71
2020/12/18 08:24:31;;;;;;;34.43;18.57;;;;;;;1.81;94.26;101059.30;1828154;78;21109;-70
2020/12/18 08:27:17;;;;;;;31.90;21.15;;;;;;;1.84;94.19;101061.63;1828196;78;21128;-71
2020/12/18 08:29:45;;;;;;;34.58;20.57;;;;;;;1.83;94.12;101061.77;1828273;78;21555;-70
2020/12/18 08:32:21;;;;;;;22.95;14.65;;;;;;;1.89;94.12;101062.47;1814690;77;20993;-70
2020/12/18 08:34:50;;;;;;;28.42;17.37;;;;;;;1.96;94.03;101047.59;1863096;77;21147;-70
2020/12/18 08:37:22;;;;;;;22.52;16.55;;;;;;;1.95;93.50;101050.73;1842756;77;21098;-70
2020/12/18 08:39:49;;;;;;;25.77;18.98;;;;;;;1.92;93.45;101049.70;1838328;77;21120;-69
2020/12/18 08:42:17;;;;;;;25.90;17.82;;;;;;;1.91;93.43;101045.91;1862311;77;21337;-72
2020/12/18 08:44:45;;;;;;;34.35;20.77;;;;;;;1.88;93.38;101047.05;1860947;77;21143;-70
2020/12/18 08:47:30;;;;;;;35.92;23.30;;;;;;;1.85;93.45;101036.77;1861737;77;21131;-69
2020/12/18 08:49:57;;;;;;;33.00;21.55;;;;;;;1.88;93.67;101043.55;1795535;79;21117;-71
2020/12/18 08:52:28;;;;;;;28.38;17.62;;;;;;;1.89;93.38;101040.75;1795414;79;21191;-70
2020/12/18 08:55:05;;;;;;;31.35;18.82;;;;;;;1.89;93.32;101039.42;1808067;77;21361;-69
2020/12/18 08:57:36;;;;;;;25.20;17.73;;;;;;;1.86;93.27;101041.09;1828615;77;21168;-69
2020/12/18 09:00:22;;;;;;;30.75;19.42;;;;;;;1.84;93.25;101037.75;1857532;77;21636;-71
2020/12/18 09:02:56;;;;;;;20.85;13.43;;;;;;;1.79;93.36;101037.40;1846477;77;21551;-70
2020/12/18 09:05:29;;;;;;;27.20;17.42;;;;;;;1.85;93.57;101031.95;1828135;78;21163;-70
2020/12/18 09:08:04;;;;;;;;;;;;;;;1.84;93.41;101031.12;1830745;78;21208;-70
2020/12/18 09:10:41;;;;;;;30.60;19.80;;;;;;;1.91;93.55;101040.60;1828012;78;20244;-73
2020/12/18 09:13:16;;;;;;;25.68;16.20;;;;;;;1.94;93.53;101037.13;1845219;77;21080;-73
2020/12/18 09:15:48;;;;;;;25.10;16.55;;;;;;;2.00;93.49;101032.51;1831082;77;21184;-74
2020/12/18 09:18:23;;;;;;;23.87;16.25;;;;;;;1.96;92.67;101023.70;1827723;78;21110;-75
2020/12/18 09:20:52;;;;;;;28.92;17.85;;;;;;;1.93;92.72;101027.98;1826982;78;21574;-73
2020/12/18 09:23:32;;;;;;;20.85;14.53;;;;;;;2.01;92.83;101024.05;1825558;78;21551;-72
2020/12/18 09:26:01;;;;;;;24.27;17.15;;;;;;;2.04;92.23;101019.74;1821735;78;21169;-72
2020/12/18 09:28:40;;;;;;;32.65;18.40;;;;;;;1.96;91.92;101016.58;1824914;77;21650;-71
2020/12/18 09:31:08;;;;;;;30.65;17.23;;;;;;;1.85;91.85;101006.26;1828119;78;21184;-71
2020/12/18 09:33:37;;;;;;;26.65;17.82;;;;;;;1.79;92.25;101012.20;1828637;77;21364;-73
2020/12/18 09:36:11;;;;;;;28.07;17.75;;;;;;;1.77;92.49;101014.69;1827456;78;21180;-69
2020/12/18 09:38:43;;;;;;;26.42;17.70;;;;;;;1.81;92.70;101015.53;1828048;78;21175;-69
2020/12/18 09:41:19;;;;;;;30.17;17.17;;;;;;;1.89;92.56;101014.23;1827714;78;21160;-70
2020/12/18 09:43:47;;;;;;;21.87;14.98;;;;;;;1.86;92.27;101009.75;1858461;77;21151;-70
2020/12/18 09:46:18;;;;;;;27.95;17.60;;;;;;;1.85;92.23;101013.38;1857761;77;21451;-70
2020/12/18 09:48:46;;;;;;;26.10;17.50;;;;;;;1.88;92.31;101007.74;1862038;77;21120;-70
2020/12/18 09:51:15;;;;;;;30.17;18.67;;;;;;;1.87;91.88;101009.56;1837495;77;21026;-74
2020/12/18 09:53:43;;;;;;;22.70;14.25;;;;;;;1.90;91.97;101006.61;1827559;78;22048;-70
2020/12/18 09:56:11;;;;;;;27.05;16.70;;;;;;;1.99;91.85;101014.92;1827528;78;21226;-68
2020/12/18 09:58:39;;;;;;;24.82;15.80;;;;;;;2.07;91.61;101006.14;1828500;78;21549;-71
2020/12/18 10:01:08;;;;;;;20.43;13.80;;;;;;;2.12;90.83;101005.98;1829599;78;20987;-69
2020/12/18 10:03:35;;;;;;;20.45;12.78;;;;;;;2.11;90.08;101004.32;1825480;77;21120;-72
2020/12/18 10:06:04;;;;;;;17.60;12.88;;;;;;;2.12;89.59;101003.83;1823454;78;21605;-71
2020/12/18 10:08:32;;;;;;;19.27;13.38;;;;;;;2.09;89.09;101004.16;1823411;78;21140;-68
2020/12/18 10:11:00;;;;;;;19.70;11.80;;;;;;;2.06;88.37;101011.94;1817801;77;21323;-71
2020/12/18 10:13:27;;;;;;;14.18;10.03;;;;;;;2.05;88.42;101010.80;1816371;79;21041;-71
2020/12/18 10:15:55;;;;;;;20.97;13.05;;;;;;;2.01;87.47;101004.98;1816345;79;21169;-70
2020/12/18 10:18:22;;;;;;;15.83;10.58;;;;;;;1.93;87.12;101004.11;1816419;79;21153;-69
2020/12/18 10:20:50;;;;;;;19.45;12.85;;;;;;;1.89;87.05;101001.45;1844816;77;21144;-70
2020/12/18 10:23:17;;;;;;;16.65;10.88;;;;;;;1.80;86.91;100999.28;1856930;77;21538;-71
2020/12/18 10:25:47;;;;;;;16.07;10.55;;;;;;;1.79;87.13;100995.45;1840991;77;21148;-69
2020/12/18 10:28:14;;;;;;;17.15;11.78;;;;;;;1.72;86.94;100984.19;1845021;77;21100;-69
2020/12/18 10:30:42;;;;;;;17.82;11.57;;;;;;;1.71;87.10;100981.69;1856882;77;21561;-70
2020/12/18 10:33:10;;;;;;;16.17;9.88;;;;;;;1.74;87.31;100978.20;1857005;77;21704;-71
2020/12/18 10:35:37;;;;;;;16.05;10.72;;;;;;;1.81;87.47;100977.56;1856806;77;21686;-71
2020/12/18 10:38:05;;;;;;;15.70;10.60;;;;;;;1.85;87.41;100982.39;1838875;77;21151;-70
2020/12/18 10:40:33;;;;;;;14.68;10.70;;;;;;;1.92;87.37;100979.92;1833857;77;21645;-70
2020/12/18 10:43:01;;;;;;;16.70;11.75;;;;;;;1.94;86.83;100984.56;1857508;77;21144;-70
2020/12/18 10:45:29;;;;;;;12.78;9.18;;;;;;;1.92;86.37;100982.05;1846025;77;21140;-67
2020/12/18 10:47:56;;;;;;;13.08;8.65;;;;;;;1.93;85.84;100984.22;1812831;77;22358;-67
2020/12/18 10:50:24;;;;;;;16.30;12.40;;;;;;;1.95;84.83;100982.25;1846767;77;20988;-69
2020/12/18 10:52:51;;;;;;;13.08;10.00;;;;;;;1.90;84.74;100980.57;1856890;77;21159;-69
2020/12/18 10:55:19;;;;;;;10.30;8.15;;;;;;;1.90;84.81;100977.92;1824108;77;21048;-68
2020/12/18 10:57:47;;;;;;;13.88;10.60;;;;;;;1.95;84.90;100970.31;1823188;77;21053;-67
2020/12/18 11:00:16;;;;;;;13.28;9.33;;;;;;;1.99;84.85;100974.29;1835644;77;21180;-67
2020/12/18 11:02:44;;;;;;;15.38;10.55;;;;;;;2.05;84.77;100976.30;1836095;77;21206;-77
2020/12/18 11:05:12;;;;;;;19.48;12.33;;;;;;;2.05;84.26;100971.83;1828013;78;21610;-69
2020/12/18 11:07:40;;;;;;;13.55;8.73;;;;;;;2.07;84.46;100975.63;1826390;78;22056;-68
2020/12/18 11:10:08;;;;;;;19.77;11.45;;;;;;;2.12;84.23;100974.64;1824288;78;21135;-69
2020/12/18 11:12:36;;;;;;;14.68;11.30;;;;;;;2.05;83.83;100963.86;1827569;78;23513;-69
2020/12/18 11:15:04;;;;;;;17.40;11.10;;;;;;;1.98;84.18;100953.55;1827576;78;21086;-68
2020/12/18 11:17:32;;;;;;;11.80;8.43;;;;;;;1.97;84.57;100957.20;1833573;77;21142;-68
2020/12/18 11:19:59;;;;;;;21.00;11.88;;;;;;;2.01;84.84;100961.21;1841910;77;21109;-68
2020/12/18 11:22:28;;;;;;;20.88;14.95;;;;;;;2.03;84.79;100964.52;1828028;78;21180;-66
2020/12/18 11:24:56;;;;;;;14.83;11.93;;;;;;;2.00;84.97;100958.71;1828069;78;21372;-66
2020/12/18 11:27:24;;;;;;;17.92;13.00;;;;;;;1.98;85.26;100952.73;1827659;78;21180;-66
2020/12/18 11:29:52;;;;;;;16.32;11.18;;;;;;;1.99;85.56;100951.24;1821741;78;21595;-68
2020/12/18 11:32:19;;;;;;;19.48;12.05;;;;;;;2.04;85.78;100964.02;1800374;78;21814;-67
2020/12/18 11:34:47;;;;;;;19.70;13.18;;;;;;;2.07;86.08;100962.35;1794425;80;21575;-69
2020/12/18 11:37:15;;;;;;;17.50;11.68;;;;;;;2.07;86.10;100966.34;1795273;78;22280;-69
2020/12/18 11:39:43;;;;;;;19.67;12.23;;;;;;;2.11;86.24;100962.39;1795495;79;21574;-67